KB3KAV Weather Reports


Display with metric or nautical units.
time (UTC)temp
F
wind
direction
speed
MPH
gust
MPH
rain 1hr
in
rain 24hr
in
rain mn
in
humidity
%
barometer
mb
20220928005817 50 118 0.0 0.0 0.00 0.00 0.00 97 1018.3
20220928004817 50 118 0.0 0.0 0.00 0.00 0.00 97 1018.6
20220928003816 50 118 0.0 0.0 0.00 0.00 0.00 97 1018.1
20220928002817 50 118 0.0 0.0 0.00 0.00 0.00 97 1018.0
20220928001815 50 118 0.0 0.0 0.00 0.00 0.00 97 1017.7
20220928000815 50 118 0.0 0.0 0.00 0.00 0.00 96 1017.3
20220927235815 50 118 0.0 0.0 0.00 0.00 0.00 96 1017.3
20220927234813 50 118 0.0 0.0 0.00 0.00 0.00 95 1016.9
20220927233813 51 118 0.0 0.0 0.00 0.00 0.00 95 1017.0
20220927232813 51 118 0.0 0.0 0.00 0.00 0.00 94 1016.7
20220927231811 52 118 0.0 0.0 0.00 0.00 0.00 93 1016.8
20220927230811 53 118 0.0 0.0 0.00 0.00 0.00 93 1016.6
20220927225810 53 118 0.0 0.0 0.00 0.00 0.00 92 1016.3
20220927224809 53 118 0.0 0.0 0.00 0.00 0.00 91 1016.2
20220927223808 55 118 0.0 0.0 0.00 0.00 0.00 90 1016.3
20220927222806 56 117 0.0 1.0 0.00 0.00 0.00 87 1016.1
20220927221805 57 117 0.0 0.0 0.00 0.00 0.00 84 1015.9
20220927220805 59 115 0.0 0.0 0.00 0.00 0.00 83 1015.9
20220927215806 59 115 0.0 0.0 0.00 0.00 0.00 80 1015.8
20220927214805 60 115 0.0 0.0 0.00 0.00 0.00 78 1015.8
20220927213805 62 73 1.0 1.0 0.00 0.00 0.00 65 1015.7
20220927212804 62 296 1.0 2.0 0.00 0.00 0.00 66 1015.5
20220927211803 62 173 2.0 2.0 0.00 0.00 0.00 74 1015.4
20220927210802 63 125 0.0 0.0 0.00 0.00 0.00 71 1015.2
20220927205801 63 150 1.0 1.0 0.00 0.00 0.00 68 1015.4
20220927204800 63 66 1.0 2.0 0.00 0.00 0.00 68 1015.2
20220927203801 62 53 0.0 1.0 0.00 0.00 0.00 70 1015.1
20220927202759 61 116 0.0 1.0 0.00 0.00 0.00 76 1015.1
20220927201757 61 288 2.0 2.0 0.00 0.00 0.00 70 1015.0
20220927200757 62 177 2.0 2.0 0.00 0.00 0.00 70 1015.1
20220927195757 62 100 0.0 0.0 0.00 0.00 0.00 69 1015.0
20220927194756 61 137 1.0 1.0 0.00 0.00 0.00 69 1015.0
20220927193755 61 125 0.0 0.0 0.00 0.00 0.00 70 1014.9
20220927192754 62 319 5.0 7.0 0.00 0.00 0.00 67 1015.1
20220927191755 61 294 1.0 1.0 0.00 0.00 0.00 70 1015.2
20220927190754 62 200 2.0 3.0 0.00 0.00 0.00 72 1015.0
20220927185754 61 255 3.0 5.0 0.00 0.00 0.00 71 1015.1
20220927184753 61 24 2.0 2.0 0.00 0.00 0.00 73 1015.0
20220927183753 60 111 0.0 1.0 0.00 0.00 0.00 75 1015.2
20220927182753 60 163 2.0 2.0 0.00 0.00 0.00 75 1015.1
20220927181753 61 123 1.0 1.0 0.00 0.00 0.00 73 1015.1
20220927180753 60 120 1.0 2.0 0.00 0.00 0.00 74 1015.3
20220927175752 60 102 1.0 1.0 0.00 0.00 0.00 76 1015.3
20220927174752 59 175 3.0 3.0 0.00 0.00 0.00 77 1015.4
20220927173751 59 146 1.0 2.0 0.00 0.00 0.00 77 1015.5
20220927172750 59 62 0.0 1.0 0.00 0.00 0.00 80 1015.5
20220927171749 58 68 0.0 0.0 0.00 0.00 0.00 79 1015.7
20220927170749 58 115 0.0 0.0 0.00 0.00 0.00 82 1015.8
20220927165748 58 133 0.0 0.0 0.00 0.00 0.00 80 1015.8
20220927164748 57 134 1.0 1.0 0.00 0.00 0.00 79 1015.7
20220927163747 57 11 1.0 1.0 0.00 0.00 0.00 80 1016.0
20220927162745 57 147 1.0 1.0 0.00 0.00 0.00 79 1015.6
20220927161746 57 201 2.0 2.0 0.00 0.00 0.00 79 1015.9
20220927160745 57 154 1.0 1.0 0.00 0.00 0.00 81 1015.4
20220927155743 57 266 2.0 3.0 0.00 0.00 0.00 78 1015.1
20220927154744 58 65 1.0 1.0 0.00 0.00 0.00 79 1015.1
20220927153742 58 96 1.0 1.0 0.00 0.00 0.00 78 1015.2
20220927152741 57 146 1.0 1.0 0.00 0.00 0.00 78 1015.1
20220927151740 57 151 1.0 1.0 0.00 0.00 0.00 79 1015.0
20220927150739 57 71 1.0 2.0 0.00 0.00 0.00 81 1015.1
20220927145739 57 328 3.0 3.0 0.00 0.00 0.00 79 1015.1
20220927144740 58 179 2.0 2.0 0.00 0.00 0.00 79 1014.8
20220927143738 58 355 2.0 2.0 0.00 0.00 0.00 77 1014.7
20220927142737 56 211 3.0 3.0 0.00 0.00 0.00 82 1014.8
20220927141736 56 314 1.0 2.0 0.00 0.00 0.00 80 1014.7
20220927140734 56 171 1.0 1.0 0.00 0.00 0.00 81 1014.6
20220927135734 56 145 1.0 1.0 0.00 0.00 0.00 82 1014.2
20220927134734 56 10 2.0 2.0 0.00 0.00 0.00 82 1014.4
20220927133735 56 297 2.0 2.0 0.00 0.00 0.00 82 1014.3
20220927132734 55 260 2.0 2.0 0.00 0.00 0.00 82 1014.3
20220927131734 55 123 1.0 1.0 0.00 0.00 0.00 83 1014.1
20220927130733 55 80 0.0 0.0 0.00 0.00 0.00 84 1014.1
20220927125733 54 114 0.0 0.0 0.00 0.00 0.00 84 1013.9
20220927124732 53 109 0.0 1.0 0.00 0.00 0.00 87 1013.7
20220927123733 52 90 0.0 0.0 0.00 0.00 0.00 93 1013.7
20220927122731 52 89 0.0 0.0 0.00 0.00 0.00 93 1013.8
20220927121730 52 79 0.0 0.0 0.00 0.00 0.00 94 1013.8
20220927120730 51 76 0.0 0.0 0.00 0.00 0.00 94 1013.6
20220927115729 51 79 0.0 0.0 0.00 0.00 0.00 94 1013.6
20220927114730 51 79 0.0 0.0 0.00 0.00 0.00 95 1013.6
20220927113730 50 73 0.0 0.0 0.00 0.00 0.00 96 1013.1
20220927112728 50 84 0.0 0.0 0.00 0.00 0.00 98 1013.3
20220927111727 50 82 0.0 0.0 0.00 0.00 0.00 98 1013.0
20220927110726 50 84 0.0 0.0 0.00 0.00 0.00 99 1013.4
20220927105724 49 86 0.0 0.0 0.00 0.00 0.00 99 1013.4
20220927104723 49 85 0.0 0.0 0.00 0.00 0.00 99 1013.1
20220927103722 49 93 0.0 1.0 0.00 0.00 0.00 99 1013.0
20220927102721 48 90 0.0 0.0 0.00 0.00 0.00 99 1013.3
20220927101720 48 91 0.0 0.0 0.00 0.00 0.00 99 1012.9
20220927100719 48 103 0.0 0.0 0.00 0.00 0.00 99 1012.7
20220927095718 47 104 0.0 0.0 0.00 0.00 0.00 99 1012.7
20220927094718 47 97 0.0 0.0 0.00 0.00 0.00 99 1012.7
20220927093718 46 116 0.0 0.0 0.00 0.00 0.00 99 1012.9
20220927092717 46 88 0.0 0.0 0.00 0.00 0.00 99 1012.9
20220927091717 45 82 0.0 0.0 0.00 0.00 0.00 99 1012.7
20220927090716 45 113 0.0 0.0 0.00 0.00 0.00 99 1012.7
20220927085714 44 102 0.0 0.0 0.00 0.00 0.00 99 1012.9
20220927084713 44 96 0.0 1.0 0.00 0.00 0.00 99 1012.7
20220927083713 43 96 0.0 0.0 0.00 0.00 0.00 99 1012.6
20220927082712 43 96 0.0 0.0 0.00 0.00 0.00 99 1012.5
20220927081713 43 96 0.0 0.0 0.00 0.00 0.00 99 1012.5
20220927080712 43 96 0.0 0.0 0.00 0.00 0.00 99 1012.5
20220927075710 43 97 0.0 0.0 0.00 0.00 0.00 99 1012.4
20220927074709 43 95 0.0 0.0 0.00 0.00 0.00 99 1012.4
20220927073709 43 94 0.0 0.0 0.00 0.00 0.00 99 1012.2
20220927072709 43 94 0.0 0.0 0.00 0.00 0.00 99 1012.3
20220927071708 43 92 0.0 1.0 0.00 0.00 0.00 99 1012.3
20220927070708 43 93 0.0 0.0 0.00 0.00 0.00 99 1012.5
20220927065706 43 93 0.0 0.0 0.00 0.00 0.00 99 1012.3
20220927064705 43 93 0.0 0.0 0.00 0.00 0.00 99 1012.3
20220927063703 43 95 0.0 0.0 0.00 0.00 0.00 99 1012.5
20220927062702 43 90 0.0 0.0 0.00 0.00 0.00 99 1012.2
20220927061701 43 89 0.0 1.0 0.00 0.00 0.00 99 1012.5
20220927060659 44 57 0.0 0.0 0.00 0.00 0.00 99 1012.6
20220927055700 44 57 0.0 0.0 0.00 0.00 0.00 99 1012.4
20220927054658 44 57 0.0 0.0 0.00 0.00 0.00 99 1012.7
20220927053657 44 57 0.0 0.0 0.00 0.00 0.00 99 1012.5
20220927052657 44 57 0.0 0.0 0.00 0.00 0.00 99 1012.7
20220927051656 44 57 0.0 0.0 0.00 0.00 0.00 99 1012.6
20220927050656 44 57 0.0 0.0 0.00 0.00 0.00 99 1012.7
20220927045654 45 57 0.0 0.0 0.00 0.00 0.00 99 1012.5
20220927044653 45 57 0.0 0.0 0.00 0.00 0.00 99 1012.8
20220927043652 45 57 0.0 0.0 0.00 0.00 0.00 99 1012.6
20220927042651 45 57 0.0 0.0 0.00 0.00 0.00 99 1012.7
20220927041651 45 57 0.0 0.0 0.00 0.00 0.00 99 1012.7
20220927040650 46 57 0.0 0.0 0.00 0.00 0.00 99 1012.7
20220927035650 46 57 0.0 0.0 0.00 0.00 0.00 99 1012.8
20220927034649 46 57 0.0 0.0 0.00 0.00 0.00 99 1012.9
20220927033648 46 57 0.0 0.0 0.00 0.00 0.00 99 1013.0
20220927032647 47 57 0.0 0.0 0.00 0.00 0.00 99 1012.7
20220927031646 47 57 0.0 0.0 0.00 0.00 0.00 99 1012.8
20220927030645 47 57 0.0 0.0 0.00 0.00 0.00 99 1012.9
20220927025644 47 57 0.0 0.0 0.00 0.00 0.00 99 1012.8
20220927024643 47 57 0.0 0.0 0.00 0.00 0.00 99 1012.4
20220927023643 48 57 0.0 0.0 0.00 0.00 0.00 99 1012.6
20220927022642 48 57 0.0 0.0 0.00 0.00 0.00 98 1012.4
20220927021640 48 57 0.0 0.0 0.00 0.00 0.00 98 1012.3
20220927020639 48 57 0.0 0.0 0.00 0.00 0.00 98 1012.4
20220927015638 49 57 0.0 0.0 0.00 0.00 0.00 98 1012.2
20220927014638 49 57 0.0 0.0 0.00 0.00 0.00 98 1012.2
20220927013636 49 57 0.0 0.0 0.00 0.00 0.00 98 1012.3
20220927012635 49 57 0.0 0.0 0.00 0.00 0.00 98 1011.6
20220927011634 50 57 0.0 0.0 0.00 0.00 0.00 97 1011.7
20220927010633 50 57 0.0 0.0 0.00 0.00 0.00 97 1011.7